EFLP

Lappeenranta Airport

Lappeenranta, Finland
METAR EFLP 220020Z AUTO 28001KT CAVOK M17/M19 Q1029
Observed Flight Rules
Feb-22 @ 00:20 UTC (4 hours ago) Visual Flight Rules
Wind Visibility Clouds
280° at 1 knots 10,000+ meters
  • Clear skies
Temperatures Readings
Current -17°C / 1°F
Dewpoint -19°C / -2°F
Humidity 85%
Altimeter 30.38" Hg
Pressure 1029 hPa
Elevation 106
METAR EFLP 220020Z AUTO 28001KT CAVOK M17/M19 Q1029
Observed Flight Rules
Feb-22 @ 00:20 UTC
(4 hours ago)
VFR
Wind Visibility
280° at 1 knots 10,000+ meters
Clouds
  • Clear skies
Temperature Dewpoint
-17°C / 1°F -19°C / -2°F
Humidity Altimeter Pressure
85% 30.38" Hg 1029 hPa